Time,TemperatureF,DewpointF,PressureIn,WindDirection,WindDirectionDegrees,WindSpeedMPH,WindSpeedGustMPH,Humidity,HourlyPrecipIn,Conditions,Clouds,dailyrainin,SolarRadiationWatts/m^2,SoftwareType,DateUTC
2013-05-24 00:00:00,53.4,48.4,30.01,NNW,342,3.0,3.0,83,0.00,,,0.05,0,Wunderground v.1.15,2013-05-24 04:00:00,
2013-05-24 00:05:00,53.3,48.3,30.01,NW,321,3.0,4.0,83,0.00,,,0.00,0,Wunderground v.1.15,2013-05-24 04:05:00,
2013-05-24 00:10:00,53.2,48.2,30.02,North,5,5.0,5.0,83,0.00,,,0.00,0,Wunderground v.1.15,2013-05-24 04:10:00,
2013-05-24 00:15:00,53.1,48.4,30.02,NNW,344,6.0,8.0,84,0.00,,,0.00,0,Wunderground v.1.15,2013-05-24 04:15:00,
2013-05-24 00:20:00,53.0,48.0,30.02,NNW,339,5.0,5.0,83,0.00,,,0.00,0,Wunderground v.1.15,2013-05-24 04:20:00,
2013-05-24 00:25:00,53.0,48.3,30.02,NNE,22,4.0,8.0,84,0.00,,,0.00,0,Wunderground v.1.15,2013-05-24 04:25:00,
2013-05-24 00:35:00,52.8,48.1,30.02,NNE,19,5.0,6.0,84,0.00,,,0.00,0,Wunderground v.1.15,2013-05-24 04:35:00,
2013-05-24 00:40:00,52.8,48.1,30.02,NW,308,4.0,4.0,84,0.00,,,0.00,0,Wunderground v.1.15,2013-05-24 04:40:00,
2013-05-24 00:45:00,52.8,48.4,30.02,NW,325,4.0,4.0,85,0.00,,,0.00,0,Wunderground v.1.15,2013-05-24 04:45:00,
2013-05-24 00:55:00,52.7,48.0,30.03,NNW,333,6.0,6.0,84,0.00,,,0.00,0,Wunderground v.1.15,2013-05-24 04:55:00,
2013-05-24 01:00:00,52.7,48.3,30.03,NNW,344,5.0,5.0,85,0.00,,,0.00,0,Wunderground v.1.15,2013-05-24 05:00:00,
2013-05-24 01:05:00,52.6,48.2,30.03,NW,304,4.0,6.0,85,0.00,,,0.00,0,Wunderground v.1.15,2013-05-24 05:05:00,
2013-05-24 01:15:00,52.6,48.2,30.03,NW,323,4.0,5.0,85,0.00,,,0.00,0,Wunderground v.1.15,2013-05-24 05:15:00,
2013-05-24 01:20:00,52.6,48.2,30.03,East,88,4.0,4.0,85,0.00,,,0.00,0,Wunderground v.1.15,2013-05-24 05:20:00,
2013-05-24 01:30:00,52.4,47.7,30.03,NNW,336,4.0,4.0,84,0.00,,,0.00,0,Wunderground v.1.15,2013-05-24 05:30:00,
2013-05-24 01:35:00,52.4,47.7,30.04,North,5,3.0,4.0,84,0.00,,,0.00,0,Wunderground v.1.15,2013-05-24 05:35:00,
2013-05-24 01:40:00,52.4,47.7,30.04,NNW,336,3.0,4.0,84,0.00,,,0.00,0,Wunderground v.1.15,2013-05-24 05:40:00,
2013-05-24 01:50:00,52.6,47.9,30.04,North,355,4.0,5.0,84,0.00,,,0.00,0,Wunderground v.1.15,2013-05-24 05:50:00,
2013-05-24 01:55:00,52.6,47.9,30.04,NNE,26,4.0,5.0,84,0.00,,,0.00,0,Wunderground v.1.15,2013-05-24 05:55:00,
2013-05-24 02:00:00,52.6,47.9,30.04,NE,34,3.0,3.0,84,0.00,,,0.00,0,Wunderground v.1.15,2013-05-24 06:00:00,
2013-05-24 02:05:00,52.5,47.8,30.04,NNW,348,3.0,3.0,84,0.00,,,0.00,0,Wunderground v.1.15,2013-05-24 06:05:00,
2013-05-24 02:15:00,52.4,47.7,30.05,NW,319,3.0,4.0,84,0.00,,,0.00,0,Wunderground v.1.15,2013-05-24 06:15:00,
2013-05-24 02:20:00,52.4,47.7,30.05,NW,313,4.0,5.0,84,0.00,,,0.00,0,Wunderground v.1.15,2013-05-24 06:20:00,
2013-05-24 02:30:00,52.3,47.6,30.05,NNW,336,5.0,5.0,84,0.00,,,0.00,0,Wunderground v.1.15,2013-05-24 06:30:00,
2013-05-24 02:35:00,52.3,47.6,30.05,North,5,4.0,5.0,84,0.00,,,0.00,0,Wunderground v.1.15,2013-05-24 06:35:00,
2013-05-24 02:45:00,52.1,47.4,30.06,NW,306,5.0,5.0,84,0.00,,,0.00,0,Wunderground v.1.15,2013-05-24 06:45:00,
2013-05-24 02:50:00,52.0,47.3,30.06,NNE,14,5.0,6.0,84,0.00,,,0.00,0,Wunderground v.1.15,2013-05-24 06:50:00,
2013-05-24 02:55:00,51.9,47.5,30.06,NNW,346,4.0,6.0,85,0.00,,,0.00,0,Wunderground v.1.15,2013-05-24 06:55:00,
2013-05-24 03:05:00,51.9,47.5,30.06,NW,322,4.0,5.0,85,0.00,,,0.00,0,Wunderground v.1.15,2013-05-24 07:05:00,
2013-05-24 03:10:00,51.9,47.5,30.07,NNW,330,3.0,3.0,85,0.00,,,0.00,0,Wunderground v.1.15,2013-05-24 07:10:00,
2013-05-24 03:15:00,51.8,47.4,30.07,North,355,4.0,4.0,85,0.00,,,0.00,0,Wunderground v.1.15,2013-05-24 07:15:00,
2013-05-24 03:25:00,51.5,47.1,30.07,NNW,336,4.0,5.0,85,0.00,,,0.00,0,Wunderground v.1.15,2013-05-24 07:25:00,
2013-05-24 03:30:00,51.4,47.0,30.07,ENE,65,4.0,4.0,85,0.00,,,0.00,0,Wunderground v.1.15,2013-05-24 07:30:00,
2013-05-24 03:35:00,51.3,46.9,30.07,NW,320,4.0,4.0,85,0.00,,,0.00,0,Wunderground v.1.15,2013-05-24 07:35:00,
2013-05-24 03:45:00,51.0,46.6,30.07,North,360,4.0,5.0,85,0.00,,,0.00,0,Wunderground v.1.15,2013-05-24 07:45:00,
2013-05-24 03:50:00,50.8,46.8,30.07,NNW,333,4.0,4.0,86,0.00,,,0.00,0,Wunderground v.1.15,2013-05-24 07:50:00,
2013-05-24 04:00:00,50.5,46.5,30.07,North,5,3.0,3.0,86,0.00,,,0.00,0,Wunderground v.1.15,2013-05-24 08:00:00,
2013-05-24 04:05:00,50.5,46.8,30.08,NNW,342,3.0,4.0,87,0.00,,,0.00,0,Wunderground v.1.15,2013-05-24 08:05:00,
2013-05-24 04:10:00,50.5,46.8,30.08,NNW,329,3.0,5.0,87,0.00,,,0.00,0,Wunderground v.1.15,2013-05-24 08:10:00,
2013-05-24 04:20:00,50.7,46.7,30.08,North,5,4.0,4.0,86,0.00,,,0.00,0,Wunderground v.1.15,2013-05-24 08:20:00,
2013-05-24 04:25:00,50.7,46.7,30.08,NW,306,4.0,4.0,86,0.00,,,0.00,0,Wunderground v.1.15,2013-05-24 08:25:00,
2013-05-24 04:35:00,50.4,46.4,30.08,NW,315,4.0,6.0,86,0.00,,,0.00,0,Wunderground v.1.15,2013-05-24 08:35:00,
2013-05-24 04:40:00,50.2,46.2,30.09,NNW,332,4.0,8.0,86,0.00,,,0.00,0,Wunderground v.1.15,2013-05-24 08:40:00,
2013-05-24 04:45:00,50.0,46.0,30.09,NNW,337,4.0,8.0,86,0.00,,,0.00,0,Wunderground v.1.15,2013-05-24 08:45:00,
2013-05-24 04:50:00,49.8,46.1,30.09,North,350,2.0,2.0,87,0.00,,,0.00,0,Wunderground v.1.15,2013-05-24 08:50:00,
2013-05-24 05:00:00,49.5,46.1,30.09,NNW,334,3.0,3.0,88,0.00,,,0.00,0,Wunderground v.1.15,2013-05-24 09:00:00,
2013-05-24 05:05:00,49.3,45.9,30.09,NNW,327,2.0,3.0,88,0.00,,,0.00,0,Wunderground v.1.15,2013-05-24 09:05:00,
2013-05-24 05:10:00,49.1,45.7,30.09,North,360,3.0,3.0,88,0.00,,,0.00,0,Wunderground v.1.15,2013-05-24 09:10:00,
2013-05-24 05:15:00,48.9,45.5,30.10,NNW,330,2.0,3.0,88,0.00,,,0.00,0,Wunderground v.1.15,2013-05-24 09:15:00,
2013-05-24 05:20:00,48.7,45.6,30.10,NNW,335,2.0,2.0,89,0.00,,,0.00,0,Wunderground v.1.15,2013-05-24 09:20:00,
2013-05-24 05:30:00,48.5,45.4,30.10,NNW,347,1.0,1.0,89,0.00,,,0.00,0,Wunderground v.1.15,2013-05-24 09:30:00,
2013-05-24 05:35:00,48.1,45.0,30.10,NW,322,1.0,1.0,89,0.00,,,0.00,0,Wunderground v.1.15,2013-05-24 09:35:00,
2013-05-24 05:40:00,47.8,45.0,30.11,NW,324,0.0,0.0,90,0.00,,,0.00,0,Wunderground v.1.15,2013-05-24 09:40:00,
2013-05-24 05:50:00,47.4,44.9,30.11,NNW,334,1.0,1.0,91,0.00,,,0.00,0,Wunderground v.1.15,2013-05-24 09:50:00,
2013-05-24 05:55:00,47.0,44.5,30.11,NW,322,1.0,1.0,91,0.00,,,0.00,0,Wunderground v.1.15,2013-05-24 09:55:00,
2013-05-24 06:05:00,46.9,44.7,30.12,NW,321,2.0,4.0,92,0.00,,,0.00,0,Wunderground v.1.15,2013-05-24 10:05:00,
2013-05-24 06:15:00,47.3,45.1,30.12,NE,47,3.0,3.0,92,0.00,,,0.00,0,Wunderground v.1.15,2013-05-24 10:15:00,
2013-05-24 06:20:00,47.6,45.4,30.13,NW,309,2.0,2.0,92,0.00,,,0.00,0,Wunderground v.1.15,2013-05-24 10:20:00,
2013-05-24 06:25:00,47.8,45.6,30.13,WNW,290,1.0,5.0,92,0.00,,,0.00,0,Wunderground v.1.15,2013-05-24 10:25:00,
2013-05-24 06:30:00,48.0,45.5,30.13,NNW,336,1.0,1.0,91,0.00,,,0.00,0,Wunderground v.1.15,2013-05-24 10:30:00,
2013-05-24 06:40:00,48.2,45.7,30.13,NNE,12,4.0,4.0,91,0.00,,,0.00,7,Wunderground v.1.15,2013-05-24 10:40:00,
2013-05-24 06:45:00,48.5,46.0,30.13,NNE,30,1.0,4.0,91,0.00,,,0.00,30,Wunderground v.1.15,2013-05-24 10:45:00,
2013-05-24 06:50:00,48.5,45.7,30.13,NW,322,2.0,2.0,90,0.00,,,0.00,40,Wunderground v.1.15,2013-05-24 10:50:00,
2013-05-24 07:00:00,48.2,45.4,30.13,NW,319,2.0,2.0,90,0.00,,,0.00,26,Wunderground v.1.15,2013-05-24 11:00:00,
2013-05-24 07:05:00,48.1,45.3,30.14,NW,316,2.0,3.0,90,0.00,,,0.00,53,Wunderground v.1.15,2013-05-24 11:05:00,
2013-05-24 07:15:00,48.0,45.2,30.14,NNW,327,3.0,3.0,90,0.00,,,0.00,79,Wunderground v.1.15,2013-05-24 11:15:00,
2013-05-24 07:20:00,48.1,45.3,30.14,NW,323,3.0,3.0,90,0.00,,,0.00,93,Wunderground v.1.15,2013-05-24 11:20:00,
2013-05-24 07:25:00,48.3,45.5,30.15,North,355,2.0,3.0,90,0.00,,,0.00,102,Wunderground v.1.15,2013-05-24 11:25:00,
2013-05-24 07:35:00,48.7,45.9,30.14,NW,324,1.0,2.0,90,0.00,,,0.00,128,Wunderground v.1.15,2013-05-24 11:35:00,
2013-05-24 07:40:00,48.7,45.9,30.14,North,360,2.0,3.0,90,0.00,,,0.00,142,Wunderground v.1.15,2013-05-24 11:40:00,
2013-05-24 07:45:00,48.7,45.9,30.15,NNW,346,2.0,3.0,90,0.00,,,0.00,165,Wunderground v.1.15,2013-05-24 11:45:00,
2013-05-24 07:50:00,48.8,45.7,30.15,NW,322,3.0,4.0,89,0.00,,,0.00,178,Wunderground v.1.15,2013-05-24 11:50:00,
2013-05-24 07:55:00,48.9,45.8,30.15,NW,309,4.0,4.0,89,0.00,,,0.00,200,Wunderground v.1.15,2013-05-24 11:55:00,
2013-05-24 08:05:00,49.5,46.1,30.16,NNE,26,3.0,4.0,88,0.00,,,0.00,230,Wunderground v.1.15,2013-05-24 12:05:00,
2013-05-24 08:10:00,49.7,46.3,30.16,NW,325,4.0,4.0,88,0.00,,,0.00,230,Wunderground v.1.15,2013-05-24 12:10:00,
2013-05-24 08:20:00,49.9,46.2,30.17,NW,311,5.0,5.0,87,0.00,,,0.00,278,Wunderground v.1.15,2013-05-24 12:20:00,
2013-05-24 08:25:00,50.3,46.3,30.17,North,9,4.0,5.0,86,0.00,,,0.00,292,Wunderground v.1.15,2013-05-24 12:25:00,
2013-05-24 08:35:00,50.6,46.3,30.17,NW,312,5.0,5.0,85,0.00,,,0.00,329,Wunderground v.1.15,2013-05-24 12:35:00,
2013-05-24 08:40:00,50.9,46.6,30.18,NE,46,5.0,6.0,85,0.00,,,0.00,329,Wunderground v.1.15,2013-05-24 12:40:00,
2013-05-24 08:45:00,51.1,46.7,30.18,NNE,30,4.0,6.0,85,0.00,,,0.00,381,Wunderground v.1.15,2013-05-24 12:45:00,
2013-05-24 08:55:00,52.1,47.4,30.18,NW,314,2.0,3.0,84,0.00,,,0.00,424,Wunderground v.1.15,2013-05-24 12:55:00,
2013-05-24 09:00:00,51.6,46.3,30.19,NNW,345,4.0,4.0,82,0.00,,,0.00,424,Wunderground v.1.15,2013-05-24 13:00:00,
2013-05-24 09:10:00,51.0,46.3,30.19,NNE,15,4.0,6.0,84,0.00,,,0.00,167,Wunderground v.1.15,2013-05-24 13:10:00,
2013-05-24 09:15:00,51.3,46.9,30.20,NNW,329,3.0,6.0,85,0.00,,,0.00,223,Wunderground v.1.15,2013-05-24 13:15:00,
2013-05-24 09:20:00,52.0,47.0,30.20,NNW,347,4.0,4.0,83,0.00,,,0.00,223,Wunderground v.1.15,2013-05-24 13:20:00,
2013-05-24 09:25:00,52.5,47.5,30.20,NW,319,5.0,5.0,83,0.00,,,0.00,223,Wunderground v.1.15,2013-05-24 13:25:00,
2013-05-24 09:35:00,53.2,48.2,30.20,NNE,28,5.0,5.0,83,0.00,,,0.00,664,Wunderground v.1.15,2013-05-24 13:35:00,
2013-05-24 09:40:00,53.9,47.9,30.20,ESE,109,3.0,5.0,80,0.00,,,0.00,592,Wunderground v.1.15,2013-05-24 13:40:00,
2013-05-24 09:45:00,53.5,47.1,30.20,NE,40,3.0,5.0,79,0.00,,,0.00,633,Wunderground v.1.15,2013-05-24 13:45:00,
2013-05-24 09:50:00,53.4,47.0,30.21,ESE,115,5.0,5.0,79,0.00,,,0.00,624,Wunderground v.1.15,2013-05-24 13:50:00,
2013-05-24 10:00:00,53.1,46.8,30.22,ESE,117,4.0,4.0,79,0.00,,,0.00,772,Wunderground v.1.15,2013-05-24 14:00:00,
2013-05-24 10:10:00,54.5,47.4,30.22,NE,42,3.0,3.0,77,0.00,,,0.00,821,Wunderground v.1.15,2013-05-24 14:10:00,
2013-05-24 10:15:00,54.5,47.1,30.23,North,350,4.0,5.0,76,0.00,,,0.00,817,Wunderground v.1.15,2013-05-24 14:15:00,
2013-05-24 10:20:00,53.8,46.8,30.23,NNW,328,3.0,3.0,77,0.00,,,0.00,258,Wunderground v.1.15,2013-05-24 14:20:00,
2013-05-24 10:30:00,53.0,46.7,30.22,North,360,3.0,3.0,79,0.00,,,0.00,230,Wunderground v.1.15,2013-05-24 14:30:00,
2013-05-24 10:35:00,53.3,47.0,30.23,NW,311,3.0,3.0,79,0.00,,,0.00,227,Wunderground v.1.15,2013-05-24 14:35:00,
2013-05-24 10:40:00,54.3,47.6,30.23,NE,55,2.0,7.0,78,0.00,,,0.00,972,Wunderground v.1.15,2013-05-24 14:40:00,
2013-05-24 10:50:00,55.2,47.4,30.23,NW,325,4.0,7.0,75,0.00,,,0.00,979,Wunderground v.1.15,2013-05-24 14:50:00,
2013-05-24 10:55:00,54.1,46.7,30.23,NNW,335,6.0,7.0,76,0.00,,,0.00,979,Wunderground v.1.15,2013-05-24 14:55:00,
2013-05-24 11:05:00,54.2,46.4,30.23,NNW,329,4.0,5.0,75,0.00,,,0.00,250,Wunderground v.1.15,2013-05-24 15:05:00,
2013-05-24 11:10:00,54.5,46.7,30.23,NNW,345,3.0,5.0,75,0.00,,,0.00,285,Wunderground v.1.15,2013-05-24 15:10:00,
2013-05-24 11:15:00,56.8,47.9,30.23,NW,309,3.0,5.0,72,0.00,,,0.00,1071,Wunderground v.1.15,2013-05-24 15:15:00,
2013-05-24 11:20:00,56.9,47.6,30.24,North,350,4.0,4.0,71,0.00,,,0.00,1071,Wunderground v.1.15,2013-05-24 15:20:00,
2013-05-24 11:30:00,56.0,47.1,30.24,NNW,328,4.0,4.0,72,0.00,,,0.00,925,Wunderground v.1.15,2013-05-24 15:30:00,
2013-05-24 11:35:00,57.0,46.9,30.24,NW,309,4.0,4.0,69,0.00,,,0.00,990,Wunderground v.1.15,2013-05-24 15:35:00,
2013-05-24 11:40:00,56.4,47.1,30.24,NW,311,4.0,5.0,71,0.00,,,0.00,362,Wunderground v.1.15,2013-05-24 15:40:00,
2013-05-24 11:50:00,56.8,47.1,30.24,North,5,3.0,5.0,70,0.00,,,0.00,1032,Wunderground v.1.15,2013-05-24 15:50:00,
2013-05-24 11:55:00,57.8,48.1,30.24,NW,308,3.0,5.0,70,0.00,,,0.00,979,Wunderground v.1.15,2013-05-24 15:55:00,
2013-05-24 12:00:00,57.1,45.8,30.24,North,351,4.0,4.0,66,0.00,,,0.00,336,Wunderground v.1.15,2013-05-24 16:00:00,
2013-05-24 12:10:00,57.2,46.7,30.24,NW,325,4.0,5.0,68,0.00,,,0.00,1055,Wunderground v.1.15,2013-05-24 16:10:00,
2013-05-24 12:15:00,58.8,47.5,30.24,West,259,4.0,5.0,66,0.00,,,0.00,1005,Wunderground v.1.15,2013-05-24 16:15:00,
2013-05-24 12:20:00,59.4,47.6,30.23,NNE,12,5.0,5.0,65,0.00,,,0.00,972,Wunderground v.1.15,2013-05-24 16:20:00,
2013-05-24 12:30:00,58.9,46.3,30.24,NW,316,4.0,4.0,63,0.00,,,0.00,294,Wunderground v.1.15,2013-05-24 16:30:00,
2013-05-24 12:35:00,58.8,45.8,30.24,NW,323,5.0,7.0,62,0.00,,,0.00,1014,Wunderground v.1.15,2013-05-24 16:35:00,
2013-05-24 12:40:00,59.3,46.3,30.24,West,279,6.0,6.0,62,0.00,,,0.00,962,Wunderground v.1.15,2013-05-24 16:40:00,
2013-05-24 12:50:00,60.6,45.7,30.24,NNW,336,5.0,5.0,58,0.00,,,0.00,986,Wunderground v.1.15,2013-05-24 16:50:00,
2013-05-24 12:55:00,61.0,46.6,30.24,NW,325,5.0,6.0,59,0.00,,,0.00,953,Wunderground v.1.15,2013-05-24 16:55:00,
2013-05-24 13:00:00,61.7,46.8,30.23,West,273,3.0,4.0,58,0.00,,,0.00,953,Wunderground v.1.15,2013-05-24 17:00:00,
2013-05-24 13:05:00,61.5,47.0,30.23,ENE,64,5.0,5.0,59,0.00,,,0.00,949,Wunderground v.1.15,2013-05-24 17:05:00,
2013-05-24 13:15:00,61.4,45.1,30.23,NNW,331,5.0,5.0,55,0.00,,,0.00,984,Wunderground v.1.15,2013-05-24 17:15:00,
2013-05-24 13:20:00,61.5,45.2,30.23,NNE,21,5.0,5.0,55,0.00,,,0.00,951,Wunderground v.1.15,2013-05-24 17:20:00,
2013-05-24 13:30:00,62.7,46.3,30.23,North,350,4.0,5.0,55,0.00,,,0.00,954,Wunderground v.1.15,2013-05-24 17:30:00,
2013-05-24 13:35:00,62.4,45.0,30.23,NNW,331,5.0,7.0,53,0.00,,,0.00,960,Wunderground v.1.15,2013-05-24 17:35:00,
2013-05-24 13:40:00,62.7,45.3,30.22,NE,51,6.0,6.0,53,0.00,,,0.00,958,Wunderground v.1.15,2013-05-24 17:40:00,
2013-05-24 13:50:00,64.6,46.1,30.22,North,355,3.0,3.0,51,0.00,,,0.00,944,Wunderground v.1.15,2013-05-24 17:50:00,
2013-05-24 13:55:00,64.1,46.6,30.22,NE,40,3.0,5.0,53,0.00,,,0.00,954,Wunderground v.1.15,2013-05-24 17:55:00,
2013-05-24 14:05:00,65.0,46.9,30.22,North,355,4.0,4.0,52,0.00,,,0.00,953,Wunderground v.1.15,2013-05-24 18:05:00,
2013-05-24 14:10:00,64.5,46.0,30.22,SE,127,3.0,3.0,51,0.00,,,0.00,953,Wunderground v.1.15,2013-05-24 18:10:00,
2013-05-24 14:15:00,64.3,45.3,30.22,NNE,13,3.0,5.0,50,0.00,,,0.00,944,Wunderground v.1.15,2013-05-24 18:15:00,
2013-05-24 14:20:00,65.5,46.4,30.22,NW,321,3.0,3.0,50,0.00,,,0.00,947,Wunderground v.1.15,2013-05-24 18:20:00,
2013-05-24 14:25:00,65.6,44.8,30.22,ENE,78,3.0,3.0,47,0.00,,,0.00,942,Wunderground v.1.15,2013-05-24 18:25:00,
2013-05-24 14:35:00,64.7,41.7,30.22,NNW,345,4.0,6.0,43,0.00,,,0.00,930,Wunderground v.1.15,2013-05-24 18:35:00,
2013-05-24 14:40:00,65.2,44.5,30.21,NE,39,4.0,6.0,47,0.00,,,0.00,926,Wunderground v.1.15,2013-05-24 18:40:00,
2013-05-24 14:45:00,65.1,44.4,30.21,ENE,61,3.0,6.0,47,0.00,,,0.00,930,Wunderground v.1.15,2013-05-24 18:45:00,
2013-05-24 14:55:00,65.7,44.3,30.22,ENE,75,4.0,5.0,46,0.00,,,0.00,914,Wunderground v.1.15,2013-05-24 18:55:00,
2013-05-24 15:00:00,65.7,44.3,30.22,North,360,3.0,10.0,46,0.00,,,0.00,911,Wunderground v.1.15,2013-05-24 19:00:00,
2013-05-24 15:05:00,64.3,44.2,30.21,NW,310,5.0,10.0,48,0.00,,,0.00,904,Wunderground v.1.15,2013-05-24 19:05:00,
2013-05-24 15:15:00,66.6,42.8,30.22,NNW,329,4.0,6.0,42,0.00,,,0.00,900,Wunderground v.1.15,2013-05-24 19:15:00,
2013-05-24 15:20:00,66.5,43.3,30.22,WSW,248,4.0,4.0,43,0.00,,,0.00,889,Wunderground v.1.15,2013-05-24 19:20:00,
2013-05-24 15:30:00,65.8,42.1,30.22,NNE,17,4.0,4.0,42,0.00,,,0.00,874,Wunderground v.1.15,2013-05-24 19:30:00,
2013-05-24 15:35:00,66.3,41.9,30.22,NE,49,4.0,6.0,41,0.00,,,0.00,867,Wunderground v.1.15,2013-05-24 19:35:00,
2013-05-24 15:40:00,65.8,41.4,30.22,North,360,4.0,4.0,41,0.00,,,0.00,860,Wunderground v.1.15,2013-05-24 19:40:00,
2013-05-24 15:45:00,66.3,41.2,30.21,NNW,337,4.0,4.0,40,0.00,,,0.00,854,Wunderground v.1.15,2013-05-24 19:45:00,
2013-05-24 15:55:00,66.6,42.8,30.22,North,349,5.0,8.0,42,0.00,,,0.00,831,Wunderground v.1.15,2013-05-24 19:55:00,
2013-05-24 16:00:00,66.7,42.2,30.22,NNE,20,4.0,4.0,41,0.00,,,0.00,819,Wunderground v.1.15,2013-05-24 20:00:00,
2013-05-24 16:05:00,66.2,42.4,30.22,ENE,74,3.0,4.0,42,0.00,,,0.00,812,Wunderground v.1.15,2013-05-24 20:05:00,
2013-05-24 16:15:00,66.3,41.9,30.21,NNE,32,4.0,4.0,41,0.00,,,0.00,793,Wunderground v.1.15,2013-05-24 20:15:00,
2013-05-24 16:20:00,67.6,39.0,30.22,WNW,284,4.0,8.0,35,0.00,,,0.00,780,Wunderground v.1.15,2013-05-24 20:20:00,
2013-05-24 16:25:00,66.7,38.9,30.22,NW,305,5.0,8.0,36,0.00,,,0.00,770,Wunderground v.1.15,2013-05-24 20:25:00,
2013-05-24 16:35:00,66.9,40.5,30.22,North,360,5.0,5.0,38,0.00,,,0.00,747,Wunderground v.1.15,2013-05-24 20:35:00,
2013-05-24 16:40:00,66.0,39.7,30.21,WNW,288,4.0,4.0,38,0.00,,,0.00,737,Wunderground v.1.15,2013-05-24 20:40:00,
2013-05-24 16:45:00,67.5,41.7,30.21,NNW,337,4.0,4.0,39,0.00,,,0.00,722,Wunderground v.1.15,2013-05-24 20:45:00,
2013-05-24 16:55:00,66.4,42.0,30.21,North,350,5.0,6.0,41,0.00,,,0.00,708,Wunderground v.1.15,2013-05-24 20:55:00,
2013-05-24 17:00:00,67.0,41.2,30.21,NNE,28,5.0,5.0,39,0.00,,,0.00,691,Wunderground v.1.15,2013-05-24 21:00:00,
2013-05-24 17:05:00,67.0,39.1,30.20,North,351,4.0,5.0,36,0.00,,,0.00,679,Wunderground v.1.15,2013-05-24 21:05:00,
2013-05-24 17:10:00,67.2,38.6,30.20,North,5,5.0,7.0,35,0.00,,,0.00,664,Wunderground v.1.15,2013-05-24 21:10:00,
2013-05-24 17:15:00,66.8,39.0,30.21,North,355,6.0,7.0,36,0.00,,,0.00,652,Wunderground v.1.15,2013-05-24 21:15:00,
2013-05-24 17:20:00,66.8,39.7,30.20,North,355,5.0,5.0,37,0.00,,,0.00,635,Wunderground v.1.15,2013-05-24 21:20:00,
2013-05-24 17:30:00,66.8,36.0,30.20,NNE,13,5.0,8.0,32,0.00,,,0.00,605,Wunderground v.1.15,2013-05-24 21:30:00,
2013-05-24 17:35:00,66.5,36.5,30.20,NW,310,5.0,8.0,33,0.00,,,0.00,589,Wunderground v.1.15,2013-05-24 21:35:00,
2013-05-24 17:40:00,66.9,36.8,30.20,NW,323,6.0,8.0,33,0.00,,,0.00,578,Wunderground v.1.15,2013-05-24 21:40:00,
2013-05-24 17:45:00,66.7,36.7,30.20,North,360,5.0,8.0,33,0.00,,,0.00,568,Wunderground v.1.15,2013-05-24 21:45:00,
2013-05-24 17:55:00,67.3,38.7,30.21,NW,306,4.0,5.0,35,0.00,,,0.00,529,Wunderground v.1.15,2013-05-24 21:55:00,
2013-05-24 18:00:00,66.8,39.0,30.20,North,9,4.0,6.0,36,0.00,,,0.00,517,Wunderground v.1.15,2013-05-24 22:00:00,
2013-05-24 18:05:00,66.5,38.7,30.20,ESE,112,4.0,6.0,36,0.00,,,0.00,497,Wunderground v.1.15,2013-05-24 22:05:00,
2013-05-24 18:15:00,66.3,39.2,30.19,NNW,334,4.0,5.0,37,0.00,,,0.00,466,Wunderground v.1.15,2013-05-24 22:15:00,
2013-05-24 18:20:00,66.7,40.3,30.19,NW,313,3.0,4.0,38,0.00,,,0.00,457,Wunderground v.1.15,2013-05-24 22:20:00,
2013-05-24 18:25:00,66.6,39.5,30.19,NW,317,3.0,4.0,37,0.00,,,0.00,441,Wunderground v.1.15,2013-05-24 22:25:00,
2013-05-24 18:35:00,67.0,41.9,30.18,NE,48,2.0,3.0,40,0.00,,,0.00,410,Wunderground v.1.15,2013-05-24 22:35:00,
2013-05-24 18:40:00,66.8,41.0,30.18,NNE,16,1.0,3.0,39,0.00,,,0.00,392,Wunderground v.1.15,2013-05-24 22:40:00,
2013-05-24 18:45:00,66.6,40.2,30.18,NW,311,2.0,6.0,38,0.00,,,0.00,378,Wunderground v.1.15,2013-05-24 22:45:00,
2013-05-24 18:50:00,66.4,39.3,30.18,NNW,348,3.0,6.0,37,0.00,,,0.00,336,Wunderground v.1.15,2013-05-24 22:50:00,
2013-05-24 19:00:00,65.9,39.6,30.18,North,11,2.0,2.0,38,0.00,,,0.00,320,Wunderground v.1.15,2013-05-24 23:00:00,
2013-05-24 19:05:00,66.4,41.3,30.18,NNW,338,2.0,2.0,40,0.00,,,0.00,302,Wunderground v.1.15,2013-05-24 23:05:00,
2013-05-24 19:10:00,66.2,38.4,30.18,NNW,343,2.0,3.0,36,0.00,,,0.00,283,Wunderground v.1.15,2013-05-24 23:10:00,
2013-05-24 19:15:00,65.9,39.6,30.18,NNW,330,2.0,3.0,38,0.00,,,0.00,267,Wunderground v.1.15,2013-05-24 23:15:00,
2013-05-24 19:25:00,65.7,40.1,30.18,NE,36,2.0,3.0,39,0.00,,,0.00,236,Wunderground v.1.15,2013-05-24 23:25:00,
2013-05-24 19:30:00,65.5,40.5,30.18,NNW,347,2.0,4.0,40,0.00,,,0.00,218,Wunderground v.1.15,2013-05-24 23:30:00,
2013-05-24 19:40:00,65.2,40.3,30.18,NE,51,2.0,2.0,40,0.00,,,0.00,176,Wunderground v.1.15,2013-05-24 23:40:00,
2013-05-24 19:45:00,64.5,39.6,30.18,NE,38,2.0,2.0,40,0.00,,,0.00,156,Wunderground v.1.15,2013-05-24 23:45:00,
2013-05-24 19:50:00,64.6,40.4,30.18,NNE,27,1.0,2.0,41,0.00,,,0.00,142,Wunderground v.1.15,2013-05-24 23:50:00,
2013-05-24 19:55:00,64.1,40.5,30.18,NNE,28,1.0,2.0,42,0.00,,,0.00,121,Wunderground v.1.15,2013-05-24 23:55:00,
2013-05-24 20:05:00,64.3,43.1,30.18,ENE,60,1.0,1.0,46,0.00,,,0.00,90,Wunderground v.1.15,2013-05-25 00:05:00,
2013-05-24 20:10:00,64.3,43.1,30.17,ENE,62,1.0,1.0,46,0.00,,,0.00,74,Wunderground v.1.15,2013-05-25 00:10:00,
2013-05-24 20:20:00,62.7,42.7,30.18,ENE,73,1.0,1.0,48,0.00,,,0.00,51,Wunderground v.1.15,2013-05-25 00:20:00,
2013-05-24 20:25:00,62.2,43.3,30.18,ENE,73,0.0,1.0,50,0.00,,,0.00,35,Wunderground v.1.15,2013-05-25 00:25:00,
2013-05-24 20:30:00,62.5,45.6,30.17,NE,44,0.0,0.0,54,0.00,,,0.00,30,Wunderground v.1.15,2013-05-25 00:30:00,
2013-05-24 20:35:00,60.8,45.5,30.17,NE,39,0.0,1.0,57,0.00,,,0.00,16,Wunderground v.1.15,2013-05-25 00:35:00,
2013-05-24 20:40:00,58.5,45.5,30.17,NNE,23,0.0,0.0,62,0.00,,,0.00,12,Wunderground v.1.15,2013-05-25 00:40:00,
2013-05-24 20:45:00,57.0,44.9,30.17,NNW,348,1.0,1.0,64,0.00,,,0.00,11,Wunderground v.1.15,2013-05-25 00:45:00,
2013-05-24 20:55:00,55.9,46.3,30.17,NNW,348,0.0,0.0,70,0.00,,,0.00,5,Wunderground v.1.15,2013-05-25 00:55:00,
2013-05-24 21:00:00,55.2,46.0,30.17,NNW,348,0.0,0.0,71,0.00,,,0.00,0,Wunderground v.1.15,2013-05-25 01:00:00,
2013-05-24 21:05:00,54.4,45.2,30.17,NNW,348,0.0,0.0,71,0.00,,,0.00,0,Wunderground v.1.15,2013-05-25 01:05:00,
2013-05-24 21:15:00,54.5,46.0,30.17,NNW,348,0.0,0.0,73,0.00,,,0.00,0,Wunderground v.1.15,2013-05-25 01:15:00,
2013-05-24 21:25:00,53.5,46.5,30.17,NNW,348,0.0,0.0,77,0.00,,,0.00,0,Wunderground v.1.15,2013-05-25 01:25:00,
2013-05-24 21:30:00,52.7,45.3,30.17,NNW,348,0.0,0.0,76,0.00,,,0.00,0,Wunderground v.1.15,2013-05-25 01:30:00,
2013-05-24 21:40:00,52.0,46.0,30.18,NNW,348,0.0,0.0,80,0.00,,,0.00,0,Wunderground v.1.15,2013-05-25 01:40:00,
2013-05-24 21:45:00,51.9,46.3,30.18,NNW,348,0.0,0.0,81,0.00,,,0.00,0,Wunderground v.1.15,2013-05-25 01:45:00,
2013-05-24 21:55:00,51.4,46.4,30.19,NNW,348,0.0,0.0,83,0.00,,,0.00,0,Wunderground v.1.15,2013-05-25 01:55:00,
2013-05-24 22:00:00,50.8,45.8,30.19,NNW,348,0.0,0.0,83,0.00,,,0.00,0,Wunderground v.1.15,2013-05-25 02:00:00,
2013-05-24 22:05:00,50.5,45.8,30.19,NNW,348,0.0,0.0,84,0.00,,,0.00,0,Wunderground v.1.15,2013-05-25 02:05:00,
2013-05-24 22:10:00,50.2,45.9,30.19,NNW,348,0.0,0.0,85,0.00,,,0.00,0,Wunderground v.1.15,2013-05-25 02:10:00,
2013-05-24 22:20:00,49.6,45.6,30.20,NNW,348,0.0,0.0,86,0.00,,,0.00,0,Wunderground v.1.15,2013-05-25 02:20:00,
2013-05-24 22:25:00,49.6,45.9,30.20,NNW,348,0.0,0.0,87,0.00,,,0.00,0,Wunderground v.1.15,2013-05-25 02:25:00,
2013-05-24 22:30:00,49.5,45.8,30.20,NNW,348,0.0,0.0,87,0.00,,,0.00,0,Wunderground v.1.15,2013-05-25 02:30:00,
2013-05-24 22:40:00,48.8,45.4,30.21,NNW,348,0.0,0.0,88,0.00,,,0.00,0,Wunderground v.1.15,2013-05-25 02:40:00,
2013-05-24 22:45:00,48.5,45.1,30.21,NNW,348,0.0,0.0,88,0.00,,,0.00,0,Wunderground v.1.15,2013-05-25 02:45:00,
2013-05-24 22:50:00,49.1,46.0,30.21,NNW,348,0.0,0.0,89,0.00,,,0.00,0,Wunderground v.1.15,2013-05-25 02:50:00,
2013-05-24 22:55:00,48.6,44.9,30.21,NNW,348,0.0,0.0,87,0.00,,,0.00,0,Wunderground v.1.15,2013-05-25 02:55:00,
2013-05-24 23:05:00,47.8,44.4,30.21,NNW,348,0.0,0.0,88,0.00,,,0.00,0,Wunderground v.1.15,2013-05-25 03:05:00,
2013-05-24 23:10:00,47.2,44.1,30.21,NNW,348,0.0,0.0,89,0.00,,,0.00,0,Wunderground v.1.15,2013-05-25 03:10:00,
2013-05-24 23:20:00,47.0,44.2,30.21,NNW,348,0.0,0.0,90,0.00,,,0.00,0,Wunderground v.1.15,2013-05-25 03:20:00,
2013-05-24 23:25:00,47.0,44.2,30.21,NNW,348,0.0,0.0,90,0.00,,,0.00,0,Wunderground v.1.15,2013-05-25 03:25:00,
2013-05-24 23:30:00,46.7,43.9,30.21,NNW,348,0.0,0.0,90,0.00,,,0.00,0,Wunderground v.1.15,2013-05-25 03:30:00,
2013-05-24 23:40:00,46.3,43.8,30.21,NNW,348,0.0,0.0,91,0.00,,,0.00,0,Wunderground v.1.15,2013-05-25 03:40:00,
2013-05-24 23:45:00,46.1,43.6,30.21,NNW,348,0.0,0.0,91,0.00,,,0.00,0,Wunderground v.1.15,2013-05-25 03:45:00,
2013-05-24 23:50:00,46.0,43.5,30.22,NNW,348,0.0,0.0,91,0.00,,,0.00,0,Wunderground v.1.15,2013-05-25 03:50:00,